createdAt,value
2018-07-05T00:00:05.940Z,16.80
2018-07-05T00:04:51.280Z,16.80
2018-07-05T00:09:36.440Z,16.70
2018-07-05T00:14:21.829Z,16.70
2018-07-05T00:19:07.121Z,16.60
2018-07-05T00:23:52.521Z,16.60
2018-07-05T00:28:37.836Z,16.60
2018-07-05T00:33:23.240Z,16.60
2018-07-05T00:38:08.557Z,16.70
2018-07-05T00:42:54.050Z,16.60
2018-07-05T00:47:39.737Z,16.60
2018-07-05T00:52:25.165Z,16.60
2018-07-05T00:57:10.722Z,16.50
2018-07-05T01:01:56.337Z,16.40
2018-07-05T01:06:41.509Z,16.30
2018-07-05T01:11:26.900Z,16.20
2018-07-05T01:16:12.054Z,16.00
2018-07-05T01:20:57.458Z,16.00
2018-07-05T01:25:42.873Z,16.00
2018-07-05T01:30:28.325Z,16.00
2018-07-05T01:35:13.730Z,16.00
2018-07-05T01:39:59.161Z,16.10
2018-07-05T01:44:44.472Z,16.10
2018-07-05T01:49:29.725Z,16.30
2018-07-05T01:54:15.113Z,16.40
2018-07-05T01:59:00.399Z,16.50
2018-07-05T02:03:45.657Z,16.60
2018-07-05T02:08:31.073Z,16.60
2018-07-05T02:13:16.452Z,16.50
2018-07-05T02:18:01.842Z,16.30
2018-07-05T02:22:47.098Z,16.30
2018-07-05T02:27:32.726Z,16.30
2018-07-05T02:32:17.985Z,16.40
2018-07-05T02:37:03.257Z,16.40
2018-07-05T02:41:48.775Z,16.50
2018-07-05T02:46:34.442Z,16.50
2018-07-05T02:51:19.997Z,16.50
2018-07-05T02:56:05.653Z,16.50
2018-07-05T03:00:51.033Z,16.50
2018-07-05T03:05:36.644Z,16.40
2018-07-05T03:10:22.141Z,16.40
2018-07-05T03:15:07.718Z,16.30
2018-07-05T03:19:53.185Z,16.40
2018-07-05T03:29:18.379Z,16.40
2018-07-05T03:34:04.137Z,16.50
2018-07-05T03:38:49.917Z,16.60
2018-07-05T03:43:35.857Z,16.70
2018-07-05T03:48:21.573Z,16.60
2018-07-05T03:53:07.034Z,16.70
2018-07-05T04:02:31.918Z,16.70
2018-07-05T04:07:17.442Z,16.70
2018-07-05T04:12:02.970Z,16.60
2018-07-05T04:16:48.698Z,16.70
2018-07-05T04:21:34.492Z,16.70
2018-07-05T04:26:20.097Z,16.70
2018-07-05T04:31:05.533Z,16.70
2018-07-05T04:35:51.088Z,16.70
2018-07-05T04:40:36.549Z,16.70
2018-07-05T04:45:22.606Z,16.80
2018-07-05T04:50:08.087Z,16.80
2018-07-05T04:54:54.377Z,16.80
2018-07-05T04:59:39.909Z,16.80
2018-07-05T05:04:25.842Z,16.90
2018-07-05T05:09:11.389Z,17.10
2018-07-05T05:13:57.345Z,17.10
2018-07-05T05:18:43.034Z,17.20
2018-07-05T05:23:28.836Z,17.30
2018-07-05T05:28:14.361Z,17.40
2018-07-05T05:33:01.803Z,17.50
2018-07-05T05:37:47.289Z,17.50
2018-07-05T05:42:32.666Z,17.70
2018-07-05T05:47:18.709Z,17.80
2018-07-05T05:56:45.449Z,18.20
2018-07-05T06:01:30.748Z,18.40
2018-07-05T06:06:16.726Z,18.60
2018-07-05T06:11:02.231Z,18.80
2018-07-05T06:15:47.728Z,18.90
2018-07-05T06:20:33.062Z,19.10
2018-07-05T06:25:18.349Z,19.20
2018-07-05T06:30:03.725Z,19.30
2018-07-05T06:34:49.362Z,19.30
2018-07-05T06:39:35.260Z,19.40
2018-07-05T06:44:20.701Z,19.40
2018-07-05T06:49:06.372Z,19.50
2018-07-05T06:53:51.871Z,19.50
2018-07-05T06:58:37.389Z,19.70
2018-07-05T07:03:23.025Z,20.00
2018-07-05T07:08:09.091Z,20.00
2018-07-05T07:12:54.325Z,20.00
2018-07-05T07:17:40.075Z,20.00
2018-07-05T07:22:25.434Z,20.00
2018-07-05T07:27:10.982Z,20.20
2018-07-05T07:31:56.725Z,20.10
2018-07-05T07:36:42.201Z,20.10
2018-07-05T07:41:27.865Z,20.10
2018-07-05T07:46:00.889Z,20.20
2018-07-05T07:50:33.953Z,20.20
2018-07-05T07:55:06.998Z,20.20
2018-07-05T07:59:40.066Z,20.30
2018-07-05T08:04:13.282Z,20.30
2018-07-05T08:08:46.363Z,20.40
2018-07-05T08:13:19.385Z,20.40
2018-07-05T08:17:52.474Z,20.40
2018-07-05T08:22:25.475Z,20.40
2018-07-05T08:26:58.574Z,20.50
2018-07-05T08:31:31.798Z,20.60
2018-07-05T08:36:04.726Z,20.80
2018-07-05T08:40:37.913Z,21.00
2018-07-05T08:45:10.956Z,21.10
2018-07-05T08:49:44.097Z,21.20
2018-07-05T08:54:17.154Z,21.30
2018-07-05T08:58:50.332Z,21.30
2018-07-05T09:03:23.406Z,21.40
2018-07-05T09:07:56.455Z,21.40
2018-07-05T09:12:29.618Z,21.40
2018-07-05T09:17:02.850Z,21.50
2018-07-05T09:21:35.930Z,21.50
2018-07-05T09:26:09.211Z,21.70
2018-07-05T09:35:15.650Z,21.90
2018-07-05T09:39:48.690Z,21.80
2018-07-05T09:44:21.733Z,21.90
2018-07-05T09:48:54.756Z,22.00
2018-07-05T09:53:27.803Z,22.00
2018-07-05T09:58:00.882Z,22.00
2018-07-05T10:02:34.004Z,21.90
2018-07-05T10:07:07.152Z,21.90
2018-07-05T10:11:40.620Z,22.00
2018-07-05T10:16:14.050Z,21.90
2018-07-05T10:20:47.529Z,22.00
2018-07-05T10:25:20.757Z,22.00
2018-07-05T10:30:06.625Z,22.10
2018-07-05T10:34:39.788Z,22.10
2018-07-05T10:39:13.111Z,22.20
2018-07-05T10:53:18.222Z,22.10
2018-07-05T10:58:07.275Z,22.20
2018-07-05T11:02:52.750Z,22.30
2018-07-05T11:07:38.402Z,22.40
2018-07-05T11:12:24.141Z,22.60
2018-07-05T11:17:09.657Z,22.90
2018-07-05T11:21:55.139Z,23.30
2018-07-05T11:26:40.681Z,23.40
2018-07-05T11:31:26.286Z,23.50
2018-07-05T11:36:11.923Z,23.50
2018-07-05T11:40:57.658Z,23.60
2018-07-05T11:45:43.455Z,23.60
2018-07-05T11:50:29.015Z,23.70
2018-07-05T11:55:14.712Z,23.70
2018-07-05T12:00:00.458Z,23.70
2018-07-05T12:04:46.093Z,23.70
2018-07-05T12:09:31.783Z,23.80
2018-07-05T12:14:17.385Z,23.80
2018-07-05T12:19:03.177Z,23.90
2018-07-05T12:23:48.932Z,23.80
2018-07-05T12:28:34.992Z,23.80
2018-07-05T12:33:20.777Z,23.90
2018-07-05T12:38:06.518Z,24.00
2018-07-05T12:42:51.949Z,24.00
2018-07-05T12:47:37.829Z,24.10
2018-07-05T12:52:23.608Z,24.10
2018-07-05T12:57:09.338Z,24.10
2018-07-05T13:01:55.029Z,24.30
2018-07-05T13:06:41.005Z,24.50
2018-07-05T13:16:06.491Z,25.00
2018-07-05T13:20:51.897Z,25.10
2018-07-05T13:25:37.601Z,25.20
2018-07-05T13:30:23.243Z,25.60
2018-07-05T13:35:08.742Z,25.60
2018-07-05T13:39:54.313Z,25.70
2018-07-05T13:44:39.890Z,25.90
2018-07-05T13:49:25.406Z,26.10
2018-07-05T13:54:10.897Z,26.30
2018-07-05T13:58:57.100Z,26.40
2018-07-05T14:03:42.682Z,26.50
2018-07-05T14:08:28.247Z,26.60
2018-07-05T14:13:13.897Z,26.80
2018-07-05T14:17:59.585Z,27.10
2018-07-05T14:22:46.751Z,27.20
2018-07-05T14:27:32.581Z,27.30
2018-07-05T14:32:18.066Z,27.20
2018-07-05T14:41:43.163Z,27.00
2018-07-05T14:46:29.233Z,26.90
2018-07-05T14:51:14.813Z,26.50
2018-07-05T14:56:00.336Z,26.40
2018-07-05T15:00:46.038Z,26.40
2018-07-05T15:05:31.698Z,26.40
2018-07-05T15:10:17.205Z,26.40
2018-07-05T15:15:02.653Z,26.40
2018-07-05T15:19:48.873Z,26.30
2018-07-05T15:24:34.425Z,26.30
2018-07-05T15:29:19.950Z,26.20
2018-07-05T15:34:05.538Z,25.90
2018-07-05T15:38:51.003Z,25.70
2018-07-05T15:48:07.969Z,25.40
2018-07-05T15:52:53.530Z,24.30
2018-07-05T15:57:39.136Z,23.70
2018-07-05T16:02:24.638Z,23.30
2018-07-05T16:07:09.998Z,22.70
2018-07-05T16:11:55.395Z,22.10
2018-07-05T16:16:41.064Z,21.60
2018-07-05T16:21:26.857Z,21.00
2018-07-05T16:26:12.418Z,20.40
2018-07-05T16:30:57.993Z,20.10
2018-07-05T16:35:43.817Z,19.80
2018-07-05T16:40:29.541Z,19.70
2018-07-05T16:45:15.220Z,19.60
2018-07-05T16:50:00.682Z,19.40
2018-07-05T16:54:46.367Z,19.40
2018-07-05T16:59:31.749Z,19.30
2018-07-05T17:04:17.762Z,19.30
2018-07-05T17:09:03.902Z,19.30
2018-07-05T17:13:49.575Z,19.20
2018-07-05T17:18:35.051Z,19.20
2018-07-05T17:23:20.750Z,19.30
2018-07-05T17:28:06.303Z,19.30
2018-07-05T17:32:51.978Z,19.30
2018-07-05T17:37:37.614Z,19.30
2018-07-05T17:47:02.868Z,19.20
2018-07-05T17:51:48.321Z,19.10
2018-07-05T17:56:33.901Z,19.10
2018-07-05T18:01:19.274Z,19.00
2018-07-05T18:06:04.909Z,18.90
2018-07-05T18:10:50.330Z,18.90
2018-07-05T18:15:35.958Z,19.00
2018-07-05T18:20:22.236Z,19.10
2018-07-05T18:25:07.665Z,19.10
2018-07-05T18:29:53.840Z,19.10
2018-07-05T18:34:39.776Z,19.10
2018-07-05T18:39:25.558Z,19.10
2018-07-05T18:44:11.060Z,19.10
2018-07-05T18:48:56.724Z,19.00
2018-07-05T18:53:42.167Z,18.90
2018-07-05T18:58:27.572Z,18.80
2018-07-05T19:03:13.033Z,18.70
2018-07-05T19:07:58.451Z,18.70
2018-07-05T19:12:44.021Z,18.60
2018-07-05T19:17:29.654Z,18.60
2018-07-05T19:22:15.161Z,18.50
2018-07-05T19:27:01.020Z,18.50
2018-07-05T19:31:46.719Z,18.40
2018-07-05T19:36:32.694Z,18.40
2018-07-05T19:41:18.162Z,18.40
2018-07-05T19:46:03.765Z,18.40
2018-07-05T19:50:49.038Z,18.30
2018-07-05T19:55:34.477Z,18.30
2018-07-05T20:00:20.196Z,18.30
2018-07-05T20:05:07.146Z,18.30
2018-07-05T20:09:53.094Z,18.30
2018-07-05T20:14:39.455Z,18.30
2018-07-05T20:19:25.593Z,18.30
2018-07-05T20:24:11.528Z,18.20
2018-07-05T20:28:57.363Z,18.30
2018-07-05T20:33:43.059Z,18.30
2018-07-05T20:38:29.316Z,18.20
2018-07-05T20:43:14.769Z,18.30
2018-07-05T20:48:00.519Z,18.20
2018-07-05T20:52:46.054Z,18.20
2018-07-05T20:57:31.704Z,18.20
2018-07-05T21:02:17.052Z,18.20
2018-07-05T21:07:02.806Z,18.20
2018-07-05T21:11:48.457Z,18.20
2018-07-05T21:16:34.084Z,18.20
2018-07-05T21:21:19.820Z,18.10
2018-07-05T21:26:05.209Z,18.20
2018-07-05T21:30:50.605Z,18.10
2018-07-05T21:35:36.173Z,18.20
2018-07-05T21:40:21.721Z,18.30
2018-07-05T21:49:46.843Z,18.20
2018-07-05T21:54:32.294Z,18.10
2018-07-05T21:59:17.933Z,18.10
2018-07-05T22:04:03.373Z,18.00
2018-07-05T22:08:49.156Z,18.00
2018-07-05T22:13:34.631Z,18.00
2018-07-05T22:18:25.583Z,18.10
2018-07-05T22:28:01.122Z,18.20
2018-07-05T22:32:46.702Z,18.30
2018-07-05T22:37:32.225Z,18.30
2018-07-05T22:42:17.738Z,18.30
2018-07-05T22:47:03.477Z,18.30
2018-07-05T22:51:48.859Z,18.30
2018-07-05T22:56:34.594Z,18.30
2018-07-05T23:01:20.286Z,18.30
2018-07-05T23:06:05.949Z,18.30
2018-07-05T23:10:51.633Z,18.30
2018-07-05T23:15:37.616Z,18.30
2018-07-05T23:20:22.981Z,18.20
2018-07-05T23:25:08.562Z,18.10
2018-07-05T23:29:54.081Z,18.20
2018-07-05T23:34:39.689Z,18.20
2018-07-05T23:39:25.245Z,18.30
2018-07-05T23:44:10.717Z,18.20
2018-07-05T23:48:56.645Z,18.10
2018-07-05T23:58:21.701Z,18.10
